createdAt,value
2019-04-20T00:00:43.015Z,6.77
2019-04-20T00:03:05.547Z,8.83
2019-04-20T00:05:30.853Z,11.77
2019-04-20T00:07:57.113Z,7.90
2019-04-20T00:10:24.334Z,6.40
2019-04-20T00:12:59.381Z,10.17
2019-04-20T00:15:15.532Z,8.63
2019-04-20T00:17:46.001Z,6.53
2019-04-20T00:20:13.367Z,6.10
2019-04-20T00:22:39.322Z,7.10
2019-04-20T00:25:04.204Z,6.13
2019-04-20T00:27:44.394Z,9.57
2019-04-20T00:30:06.599Z,7.77
2019-04-20T00:32:29.583Z,6.77
2019-04-20T00:34:45.437Z,9.23
2019-04-20T00:37:08.823Z,7.33
2019-04-20T00:39:34.615Z,6.17
2019-04-20T00:42:06.680Z,6.53
2019-04-20T00:44:30.409Z,5.73
2019-04-20T00:47:05.889Z,7.23
2019-04-20T00:49:34.958Z,7.27
2019-04-20T00:52:15.665Z,7.53
2019-04-20T00:54:13.614Z,5.87
2019-04-20T00:56:39.320Z,7.37
2019-04-20T00:59:17.198Z,6.07
2019-04-20T01:01:55.379Z,5.30
2019-04-20T01:06:46.754Z,7.63
2019-04-20T01:08:57.089Z,6.90
2019-04-20T01:11:28.911Z,6.27
2019-04-20T01:13:53.612Z,5.83
2019-04-20T01:16:25.202Z,6.23
2019-04-20T01:18:40.489Z,5.07
2019-04-20T01:21:13.898Z,8.93
2019-04-20T01:23:40.164Z,6.50
2019-04-20T01:26:05.290Z,6.97
2019-04-20T01:28:45.084Z,8.03
2019-04-20T01:31:08.327Z,5.10
2019-04-20T01:33:32.064Z,6.13
2019-04-20T01:35:56.836Z,5.73
2019-04-20T01:38:26.791Z,5.53
2019-04-20T01:40:36.594Z,6.57
2019-04-20T01:43:03.814Z,6.27
2019-04-20T01:45:37.265Z,6.87
2019-04-20T01:47:59.546Z,7.07
2019-04-20T01:50:28.446Z,9.60
2019-04-20T01:53:01.589Z,5.83
2019-04-20T01:55:34.698Z,8.40
2019-04-20T01:58:00.596Z,6.30
2019-04-20T02:00:14.459Z,9.07
2019-04-20T02:02:42.224Z,5.57
2019-04-20T02:05:10.938Z,4.67
2019-04-20T02:07:33.728Z,4.90
2019-04-20T02:09:58.551Z,5.13
2019-04-20T02:12:25.346Z,6.73
2019-04-20T02:14:53.717Z,4.77
2019-04-20T02:17:21.348Z,4.30
2019-04-20T02:20:02.327Z,5.60
2019-04-20T02:22:17.109Z,5.80
2019-04-20T02:24:31.906Z,5.70
2019-04-20T02:26:57.820Z,5.73
2019-04-20T02:29:44.600Z,8.77
2019-04-20T02:32:22.480Z,4.70
2019-04-20T02:34:53.754Z,5.87
2019-04-20T02:37:14.266Z,6.50
2019-04-20T02:42:16.076Z,4.93
2019-04-20T02:44:41.825Z,5.73
2019-04-20T02:47:07.905Z,5.23
2019-04-20T02:52:04.934Z,4.43
2019-04-20T02:54:18.574Z,4.37
2019-04-20T02:56:47.990Z,6.70
2019-04-20T02:59:47.287Z,5.83
2019-04-20T03:01:25.309Z,3.93
2019-04-20T03:03:37.644Z,4.70
2019-04-20T03:06:09.571Z,5.37
2019-04-20T03:08:38.256Z,4.73
2019-04-20T03:11:09.416Z,5.13
2019-04-20T03:13:32.340Z,5.53
2019-04-20T03:16:01.944Z,4.13
2019-04-20T03:18:27.968Z,5.27
2019-04-20T03:20:55.001Z,7.07
2019-04-20T03:25:50.643Z,5.40
2019-04-20T03:28:10.693Z,4.83
2019-04-20T03:31:15.852Z,4.23
2019-04-20T03:33:31.399Z,5.03
2019-04-20T03:35:51.083Z,4.33
2019-04-20T03:38:01.321Z,5.47
2019-04-20T03:40:14.588Z,8.70
2019-04-20T03:42:26.698Z,4.50
2019-04-20T03:44:58.726Z,5.77
2019-04-20T03:47:30.520Z,4.83
2019-04-20T03:50:07.908Z,5.47
2019-04-20T03:52:27.687Z,5.67
2019-04-20T03:54:46.950Z,5.10
2019-04-20T03:57:26.583Z,4.57
2019-04-20T03:59:51.001Z,5.53
2019-04-20T04:02:34.167Z,4.23
2019-04-20T04:04:38.855Z,7.33
2019-04-20T04:06:53.912Z,4.90
2019-04-20T04:09:25.887Z,5.50
2019-04-20T04:11:55.059Z,10.50
2019-04-20T04:14:07.124Z,4.70
2019-04-20T04:16:38.367Z,5.23
2019-04-20T04:19:08.684Z,5.63
2019-04-20T04:21:41.709Z,6.13
2019-04-20T04:24:05.553Z,5.57
2019-04-20T04:26:34.076Z,6.03
2019-04-20T04:29:00.761Z,6.30
2019-04-20T04:31:27.630Z,4.80
2019-04-20T04:36:17.688Z,6.00
2019-04-20T04:38:48.762Z,5.77
2019-04-20T04:41:18.211Z,5.83
2019-04-20T04:43:39.969Z,6.10
2019-04-20T04:45:46.928Z,6.87
2019-04-20T04:48:18.312Z,6.33
2019-04-20T04:50:47.421Z,6.03
2019-04-20T04:53:11.485Z,8.53
2019-04-20T04:55:41.690Z,6.93
2019-04-20T04:57:56.306Z,7.57
2019-04-20T05:00:27.479Z,7.87
2019-04-20T05:02:53.827Z,6.47
2019-04-20T05:05:36.985Z,5.73
2019-04-20T05:07:52.050Z,8.30
2019-04-20T05:10:07.690Z,9.83
2019-04-20T05:12:35.387Z,9.03
2019-04-20T05:15:07.936Z,9.03
2019-04-20T05:17:47.512Z,6.57
2019-04-20T05:20:09.266Z,5.57
2019-04-20T05:22:36.873Z,6.20
2019-04-20T05:25:04.637Z,7.60
2019-04-20T05:27:32.100Z,6.27
2019-04-20T05:29:38.162Z,5.50
2019-04-20T05:32:07.857Z,6.63
2019-04-20T05:34:52.576Z,6.37
2019-04-20T05:37:24.234Z,7.73
2019-04-20T05:39:47.430Z,5.97
2019-04-20T05:42:16.424Z,8.03
2019-04-20T05:44:38.928Z,6.73
2019-04-20T05:47:02.917Z,7.03
2019-04-20T05:49:28.702Z,7.37
2019-04-20T05:51:51.129Z,6.90
2019-04-20T05:54:23.659Z,7.30
2019-04-20T06:01:37.939Z,8.60
2019-04-20T06:04:00.533Z,7.27
2019-04-20T06:06:29.195Z,9.07
2019-04-20T06:08:59.541Z,9.97
2019-04-20T06:11:24.636Z,8.60
2019-04-20T06:13:38.089Z,10.13
2019-04-20T06:16:07.813Z,6.20
2019-04-20T06:18:36.355Z,10.77
2019-04-20T06:21:17.439Z,9.63
2019-04-20T06:23:40.373Z,7.40
2019-04-20T06:26:13.454Z,7.93
2019-04-20T06:28:23.435Z,5.77
2019-04-20T06:30:45.183Z,6.23
2019-04-20T06:33:24.640Z,7.03
2019-04-20T06:36:05.640Z,5.20
2019-04-20T06:38:27.937Z,9.00
2019-04-20T06:40:59.404Z,7.30
2019-04-20T06:43:05.011Z,6.83
2019-04-20T06:45:36.401Z,7.67
2019-04-20T06:47:57.871Z,7.23
2019-04-20T06:50:17.274Z,6.37
2019-04-20T06:52:42.173Z,5.47
2019-04-20T06:55:09.705Z,9.80
2019-04-20T07:00:07.398Z,4.40
2019-04-20T07:02:38.658Z,4.03
2019-04-20T07:04:57.956Z,5.17
2019-04-20T07:07:23.915Z,4.57
2019-04-20T07:10:05.048Z,6.73
2019-04-20T07:12:11.431Z,4.53
2019-04-20T07:14:33.066Z,5.27
2019-04-20T07:17:24.535Z,7.17
2019-04-20T07:19:29.135Z,3.97
2019-04-20T07:24:35.052Z,5.23
2019-04-20T07:26:57.870Z,5.30
2019-04-20T07:29:26.961Z,5.87
2019-04-20T07:31:44.354Z,5.70
2019-04-20T07:34:10.412Z,4.07
2019-04-20T07:36:40.048Z,5.67
2019-04-20T07:39:08.867Z,5.13
2019-04-20T07:41:43.241Z,5.70
2019-04-20T07:44:05.407Z,6.30
2019-04-20T07:46:41.206Z,4.53
2019-04-20T07:48:49.145Z,3.40
2019-04-20T07:51:08.142Z,4.60
2019-04-20T07:53:37.929Z,3.97
2019-04-20T07:56:14.714Z,3.27
2019-04-20T07:58:25.082Z,3.70
2019-04-20T08:01:09.047Z,3.80
2019-04-20T08:03:35.197Z,4.13
2019-04-20T08:05:47.014Z,4.43
2019-04-20T08:08:18.084Z,7.43
2019-04-20T08:10:51.908Z,4.30
2019-04-20T08:13:19.635Z,3.73
2019-04-20T08:18:07.647Z,3.27
2019-04-20T08:20:32.821Z,3.47
2019-04-20T08:22:59.145Z,3.20
2019-04-20T08:25:18.066Z,3.33
2019-04-20T08:27:31.725Z,8.77
2019-04-20T08:30:10.986Z,3.77
2019-04-20T08:32:41.622Z,5.37
2019-04-20T08:35:14.323Z,4.70
2019-04-20T08:37:31.081Z,4.17
2019-04-20T08:42:30.108Z,5.63
2019-04-20T08:45:01.161Z,6.73
2019-04-20T08:47:29.184Z,4.33
2019-04-20T08:49:51.858Z,5.17
2019-04-20T08:52:41.298Z,5.20
2019-04-20T08:54:34.510Z,5.00
2019-04-20T08:56:53.194Z,5.60
2019-04-20T08:59:11.636Z,5.87
2019-04-20T09:01:37.774Z,6.30
2019-04-20T09:04:09.753Z,4.30
2019-04-20T09:06:42.639Z,4.83
2019-04-20T09:09:11.703Z,5.83
2019-04-20T09:11:41.531Z,7.23
2019-04-20T09:13:53.618Z,5.90
2019-04-20T09:16:15.369Z,9.83
2019-04-20T09:18:50.349Z,5.07
2019-04-20T09:21:19.995Z,5.90
2019-04-20T09:23:49.617Z,5.20
2019-04-20T09:26:18.622Z,6.07
2019-04-20T09:28:36.481Z,5.77
2019-04-20T09:31:11.874Z,4.97
2019-04-20T09:33:33.676Z,5.77
2019-04-20T09:36:00.092Z,7.10
2019-04-20T09:38:24.892Z,6.53
2019-04-20T09:40:57.203Z,6.50
2019-04-20T09:43:04.570Z,8.57
2019-04-20T09:45:36.878Z,5.27
2019-04-20T09:47:58.332Z,7.23
2019-04-20T09:50:44.991Z,5.60
2019-04-20T09:53:02.533Z,7.27
2019-04-20T09:55:29.531Z,6.53
2019-04-20T09:57:59.044Z,6.73
2019-04-20T10:00:23.800Z,6.23
2019-04-20T10:02:37.783Z,8.03
2019-04-20T10:05:01.903Z,5.57
2019-04-20T10:07:31.168Z,6.47
2019-04-20T10:09:53.846Z,5.43
2019-04-20T10:12:19.744Z,7.20
2019-04-20T10:14:44.967Z,5.00
2019-04-20T10:17:11.860Z,8.17
2019-04-20T10:19:39.442Z,6.73
2019-04-20T10:22:04.553Z,6.27
2019-04-20T10:24:30.535Z,6.03
2019-04-20T10:26:56.516Z,6.23
2019-04-20T10:29:21.670Z,5.80
2019-04-20T10:31:54.649Z,5.43
2019-04-20T10:34:15.682Z,6.67
2019-04-20T10:36:41.649Z,8.17
2019-04-20T10:39:06.719Z,6.60
2019-04-20T10:41:40.913Z,4.77
2019-04-20T10:43:58.826Z,5.90
2019-04-20T10:46:24.896Z,6.50
2019-04-20T10:48:53.312Z,6.97
2019-04-20T10:51:17.800Z,6.00
2019-04-20T10:53:44.513Z,6.17
2019-04-20T10:56:09.923Z,6.47
2019-04-20T10:58:35.926Z,5.80
2019-04-20T11:01:01.963Z,5.17
2019-04-20T11:03:28.871Z,9.60
2019-04-20T11:05:54.073Z,6.37
2019-04-20T11:08:20.381Z,7.07
2019-04-20T11:10:57.898Z,8.60
2019-04-20T11:13:13.014Z,7.73
2019-04-20T11:15:39.804Z,8.67
2019-04-20T11:18:06.865Z,6.23
2019-04-20T11:20:33.150Z,8.47
2019-04-20T11:22:58.187Z,7.57
2019-04-20T11:25:24.333Z,7.67
2019-04-20T11:27:52.180Z,9.57
2019-04-20T11:30:18.223Z,7.63
2019-04-20T11:32:44.236Z,7.63
2019-04-20T11:35:19.999Z,8.70
2019-04-20T11:37:35.351Z,6.43
2019-04-20T11:40:01.518Z,6.07
2019-04-20T11:42:27.781Z,9.13
2019-04-20T11:44:54.683Z,10.07
2019-04-20T11:47:19.771Z,7.43
2019-04-20T11:49:45.869Z,5.93
2019-04-20T11:52:13.282Z,6.53
2019-04-20T11:54:38.003Z,6.67
2019-04-20T11:57:04.167Z,5.70
2019-04-20T11:59:30.559Z,8.33
2019-04-20T12:02:01.144Z,7.17
2019-04-20T12:04:35.189Z,6.60
2019-04-20T12:06:48.775Z,6.33
2019-04-20T12:09:14.974Z,7.27
2019-04-20T12:11:56.373Z,9.13
2019-04-20T12:14:06.977Z,11.73
2019-04-20T12:16:33.751Z,7.93
2019-04-20T12:19:00.177Z,11.17
2019-04-20T12:21:26.497Z,6.00
2019-04-20T12:23:54.011Z,10.77
2019-04-20T12:26:18.842Z,7.13
2019-04-20T12:28:45.623Z,10.00
2019-04-20T12:31:16.654Z,7.70
2019-04-20T12:33:37.775Z,7.77
2019-04-20T12:36:03.832Z,7.67
2019-04-20T12:38:30.789Z,7.10
2019-04-20T12:40:55.967Z,6.60
2019-04-20T12:43:21.995Z,9.47
2019-04-20T12:45:48.085Z,6.77
2019-04-20T12:48:15.507Z,5.97
2019-04-20T12:50:41.456Z,8.50
2019-04-20T12:53:06.569Z,10.17
2019-04-20T12:55:32.628Z,9.43
2019-04-20T12:57:58.706Z,8.57
2019-04-20T13:00:25.683Z,9.40
2019-04-20T13:02:51.559Z,6.83
2019-04-20T13:05:17.565Z,9.83
2019-04-20T13:07:47.859Z,8.50
2019-04-20T13:10:11.477Z,7.30
2019-04-20T13:12:36.571Z,8.53
2019-04-20T13:15:02.615Z,9.27
2019-04-20T13:17:28.667Z,9.90
2019-04-20T13:19:55.327Z,9.27
2019-04-20T13:22:21.115Z,8.47
2019-04-20T13:24:47.269Z,8.53
2019-04-20T13:27:14.399Z,8.27
2019-04-20T13:29:40.860Z,9.33
2019-04-20T13:32:07.996Z,9.47
2019-04-20T13:34:34.005Z,7.67
2019-04-20T13:37:00.136Z,7.60
2019-04-20T13:39:26.853Z,7.60
2019-04-20T13:42:03.460Z,9.20
2019-04-20T13:44:18.430Z,8.17
2019-04-20T13:46:45.063Z,10.90
2019-04-20T13:49:11.183Z,9.13
2019-04-20T13:51:38.962Z,7.47
2019-04-20T13:54:06.289Z,8.50
2019-04-20T13:56:30.400Z,9.93
2019-04-20T13:58:56.430Z,7.97
2019-04-20T14:01:23.221Z,8.67
2019-04-20T14:03:50.300Z,7.70
2019-04-20T14:06:16.587Z,8.40
2019-04-20T14:08:41.439Z,7.00
2019-04-20T14:11:07.450Z,8.93
2019-04-20T14:13:38.956Z,9.03
2019-04-20T14:16:00.814Z,12.53
2019-04-20T14:18:26.923Z,10.07
2019-04-20T14:20:52.117Z,8.40
2019-04-20T14:23:18.918Z,8.80
2019-04-20T14:25:45.107Z,12.80
2019-04-20T14:28:11.231Z,11.37
2019-04-20T14:30:37.321Z,6.67
2019-04-20T14:33:03.032Z,7.17
2019-04-20T14:35:29.200Z,6.47
2019-04-20T14:37:54.382Z,8.23
2019-04-20T14:40:20.406Z,9.03
2019-04-20T14:42:50.333Z,8.23
2019-04-20T14:45:14.432Z,10.77
2019-04-20T14:47:41.471Z,8.50
2019-04-20T14:50:07.522Z,8.97
2019-04-20T14:52:33.436Z,6.70
2019-04-20T14:54:59.508Z,8.57
2019-04-20T14:57:25.575Z,6.67
2019-04-20T14:59:51.667Z,11.23
2019-04-20T15:02:17.466Z,6.77
2019-04-20T15:04:43.505Z,7.73
2019-04-20T15:07:10.805Z,12.27
2019-04-20T15:09:38.704Z,11.13
2019-04-20T15:12:02.901Z,10.57
2019-04-20T15:14:29.065Z,19.73
2019-04-20T15:16:54.792Z,9.77
2019-04-20T15:19:21.196Z,9.60
2019-04-20T15:21:47.448Z,9.87
2019-04-20T15:24:13.787Z,11.17
2019-04-20T15:26:40.443Z,9.53
2019-04-20T15:29:06.400Z,19.77
2019-04-20T15:31:32.172Z,11.73
2019-04-20T15:33:59.106Z,13.77
2019-04-20T15:36:24.310Z,22.50
2019-04-20T15:38:51.357Z,10.83
2019-04-20T15:41:18.519Z,10.53
2019-04-20T15:43:44.016Z,10.67
2019-04-20T15:46:10.058Z,10.20
2019-04-20T15:48:36.055Z,9.67
2019-04-20T15:51:02.086Z,13.13
2019-04-20T15:53:29.455Z,14.03
2019-04-20T15:55:55.604Z,8.83
2019-04-20T15:58:22.563Z,11.43
2019-04-20T16:00:47.221Z,13.17
2019-04-20T16:03:13.245Z,13.07
2019-04-20T16:05:39.287Z,10.83
2019-04-20T16:08:06.734Z,13.50
2019-04-20T16:10:32.702Z,13.60
2019-04-20T16:13:11.888Z,11.73
2019-04-20T16:15:25.429Z,13.53
2019-04-20T16:17:53.113Z,12.70
2019-04-20T16:20:20.155Z,14.40
2019-04-20T16:22:42.678Z,10.93
2019-04-20T16:25:09.609Z,11.40
2019-04-20T16:27:36.026Z,11.70
2019-04-20T16:30:02.058Z,12.23
2019-04-20T16:32:27.008Z,10.77
2019-04-20T16:34:53.846Z,14.73
2019-04-20T16:37:20.141Z,14.50
2019-04-20T16:39:46.355Z,13.53
2019-04-20T16:42:12.056Z,8.23
2019-04-20T16:44:38.947Z,9.57
2019-04-20T16:47:04.226Z,9.23
2019-04-20T16:49:30.660Z,9.97
2019-04-20T16:51:57.166Z,10.40
2019-04-20T16:54:23.908Z,12.23
2019-04-20T16:56:50.829Z,10.53
2019-04-20T16:59:17.834Z,12.97
2019-04-20T17:01:42.850Z,15.17
2019-04-20T17:04:13.658Z,17.97
2019-04-20T17:06:36.007Z,15.63
2019-04-20T17:09:02.900Z,16.33
2019-04-20T17:11:36.221Z,17.37
2019-04-20T17:14:03.233Z,12.50
2019-04-20T17:16:27.969Z,12.93
2019-04-20T17:18:53.187Z,13.47
2019-04-20T17:21:23.461Z,15.00
2019-04-20T17:23:46.918Z,16.53
2019-04-20T17:26:11.917Z,18.27
2019-04-20T17:28:38.631Z,16.53
2019-04-20T17:31:04.362Z,16.10
2019-04-20T17:33:30.523Z,17.33
2019-04-20T17:36:04.503Z,14.53
2019-04-20T17:38:22.645Z,13.07
2019-04-20T17:41:03.037Z,15.13
2019-04-20T17:43:25.222Z,18.70
2019-04-20T17:45:50.428Z,15.07
2019-04-20T17:48:18.588Z,15.63
2019-04-20T17:50:55.696Z,15.33
2019-04-20T17:53:14.504Z,15.90
2019-04-20T17:55:32.244Z,16.23
2019-04-20T17:57:53.185Z,20.43
2019-04-20T18:00:19.440Z,19.33
2019-04-20T18:03:04.290Z,25.47
2019-04-20T18:05:34.247Z,25.90
2019-04-20T18:07:58.274Z,30.80
2019-04-20T18:10:23.214Z,30.20
2019-04-20T18:12:37.478Z,31.30
2019-04-20T18:15:16.825Z,33.03
2019-04-20T18:17:34.625Z,33.53
2019-04-20T18:19:49.130Z,41.97
2019-04-20T18:22:15.931Z,42.90
2019-04-20T18:25:04.802Z,43.73
2019-04-20T18:27:36.151Z,42.23
2019-04-20T18:29:51.309Z,43.53
2019-04-20T18:31:59.665Z,48.13
2019-04-20T18:34:27.394Z,50.17
2019-04-20T18:36:52.811Z,55.13
2019-04-20T18:39:22.143Z,54.83
2019-04-20T18:41:48.050Z,60.50
2019-04-20T18:44:10.797Z,63.00
2019-04-20T18:46:59.998Z,63.10
2019-04-20T18:49:19.983Z,62.93
2019-04-20T18:51:29.995Z,59.80
2019-04-20T18:54:05.624Z,59.23
2019-04-20T18:56:28.393Z,62.00
2019-04-20T18:58:49.213Z,54.27
2019-04-20T19:01:15.028Z,57.10
2019-04-20T19:03:44.077Z,67.60
2019-04-20T19:06:07.778Z,70.33
2019-04-20T19:08:39.501Z,95.53
2019-04-20T19:11:06.804Z,99.50
2019-04-20T19:13:32.786Z,103.47
2019-04-20T19:16:09.311Z,115.67
2019-04-20T19:18:36.749Z,121.63
2019-04-20T19:20:45.367Z,112.00
2019-04-20T19:23:11.058Z,101.37
2019-04-20T19:25:40.585Z,93.20
2019-04-20T19:28:04.964Z,91.23
2019-04-20T19:30:37.302Z,93.87
2019-04-20T19:33:14.494Z,104.70
2019-04-20T19:35:33.879Z,113.23
2019-04-20T19:37:58.632Z,118.17
2019-04-20T19:40:28.726Z,122.50
2019-04-20T19:42:55.843Z,123.30
2019-04-20T19:45:34.549Z,114.97
2019-04-20T19:47:50.859Z,130.80
2019-04-20T19:50:31.237Z,137.70
2019-04-20T19:52:50.390Z,134.93
2019-04-20T19:55:10.872Z,154.33
2019-04-20T19:57:37.262Z,167.70
2019-04-20T19:59:50.203Z,156.47
2019-04-20T20:02:11.777Z,164.30
2019-04-20T20:04:41.347Z,162.43
2019-04-20T20:07:07.053Z,139.87
2019-04-20T20:09:32.342Z,140.37
2019-04-20T20:12:02.922Z,155.00
2019-04-20T20:14:29.254Z,144.47
2019-04-20T20:17:04.122Z,143.60
2019-04-20T20:19:29.548Z,144.77
2019-04-20T20:21:56.910Z,132.97
2019-04-20T20:24:09.142Z,124.13
2019-04-20T20:26:36.993Z,132.90
2019-04-20T20:29:09.279Z,117.23
2019-04-20T20:31:44.529Z,123.83
2019-04-20T20:34:03.087Z,124.43
2019-04-20T20:36:23.035Z,107.67
2019-04-20T20:38:50.226Z,112.53
2019-04-20T20:41:20.682Z,129.57
2019-04-20T20:43:51.110Z,131.83
2019-04-20T20:46:18.077Z,131.37
2019-04-20T20:48:54.295Z,147.03
2019-04-20T20:51:16.421Z,144.60
2019-04-20T20:53:35.338Z,137.57
2019-04-20T20:56:00.107Z,148.33
2019-04-20T20:58:19.167Z,145.90
2019-04-20T21:00:50.429Z,164.70
2019-04-20T21:03:14.598Z,154.00
2019-04-20T21:05:35.590Z,150.67
2019-04-20T21:08:01.667Z,168.70
2019-04-20T21:10:31.920Z,162.20
2019-04-20T21:12:56.487Z,154.03
2019-04-20T21:15:22.565Z,157.23
2019-04-20T21:18:08.461Z,165.07
2019-04-20T21:20:33.236Z,161.20
2019-04-20T21:22:54.801Z,151.40
2019-04-20T21:25:05.329Z,147.07
2019-04-20T21:27:30.233Z,157.07
2019-04-20T21:29:58.670Z,144.67
2019-04-20T21:32:23.710Z,149.67
2019-04-20T21:34:53.930Z,143.57
2019-04-20T21:37:19.240Z,140.80
2019-04-20T21:39:46.555Z,145.20
2019-04-20T21:42:12.622Z,142.23
2019-04-20T21:44:37.521Z,142.30
2019-04-20T21:47:01.950Z,143.57
2019-04-20T21:49:43.841Z,140.80
2019-04-20T21:52:00.890Z,136.00
2019-04-20T21:54:20.173Z,127.53
2019-04-20T21:56:53.855Z,124.30
2019-04-20T21:59:16.447Z,127.47
2019-04-20T22:01:41.196Z,114.50
2019-04-20T22:04:03.678Z,107.53
2019-04-20T22:06:29.699Z,105.30
2019-04-20T22:09:00.434Z,100.77
2019-04-20T22:11:21.962Z,94.17
2019-04-20T22:13:49.466Z,98.63
2019-04-20T22:16:15.133Z,94.33
2019-04-20T22:18:56.614Z,82.50
2019-04-20T22:21:19.679Z,87.93
2019-04-20T22:23:48.909Z,84.90
2019-04-20T22:26:12.030Z,84.30
2019-04-20T22:28:26.442Z,89.27
2019-04-20T22:30:51.241Z,85.93
2019-04-20T22:33:23.639Z,88.23
2019-04-20T22:35:49.783Z,91.83
2019-04-20T22:38:13.809Z,108.43
2019-04-20T22:40:36.717Z,82.47
2019-04-20T22:43:02.356Z,85.10
2019-04-20T22:45:29.570Z,83.57
2019-04-20T22:48:01.313Z,86.67
2019-04-20T22:50:38.546Z,83.07
2019-04-20T22:52:58.048Z,83.03
2019-04-20T22:55:33.991Z,79.20
2019-04-20T22:57:53.477Z,82.63
2019-04-20T23:00:13.182Z,81.70
2019-04-20T23:02:33.975Z,74.13
2019-04-20T23:05:00.727Z,87.27
2019-04-20T23:07:26.472Z,85.27
2019-04-20T23:09:56.459Z,90.77
2019-04-20T23:12:22.733Z,92.93
2019-04-20T23:14:46.349Z,93.70
2019-04-20T23:17:12.336Z,82.10
2019-04-20T23:19:46.636Z,100.40
2019-04-20T23:22:07.058Z,79.23
2019-04-20T23:24:29.488Z,82.03
2019-04-20T23:26:57.369Z,84.77
2019-04-20T23:29:27.259Z,90.63
2019-04-20T23:31:55.522Z,83.37
2019-04-20T23:34:20.137Z,85.90
2019-04-20T23:36:45.120Z,82.70
2019-04-20T23:39:08.612Z,81.90
2019-04-20T23:41:33.564Z,83.77
2019-04-20T23:44:03.988Z,89.53
2019-04-20T23:46:29.364Z,93.93
2019-04-20T23:48:52.487Z,90.33
2019-04-20T23:51:40.698Z,80.97
2019-04-20T23:53:56.473Z,87.43
2019-04-20T23:56:15.633Z,84.27
2019-04-20T23:58:44.270Z,81.67
